sensor_id;sensor_type;location;lat;lon;timestamp;pressure;altitude;pressure_sealevel;temperature;humidity
29169;BME280;16219;42.864;23.360;2023-01-16T00:00:06;95813.25;;;1.63;100.00
29169;BME280;16219;42.864;23.360;2023-01-16T00:02:33;95797.91;;;1.62;100.00
29169;BME280;16219;42.864;23.360;2023-01-16T00:05:01;95801.63;;;1.76;100.00
29169;BME280;16219;42.864;23.360;2023-01-16T00:07:29;95803.41;;;1.70;100.00
29169;BME280;16219;42.864;23.360;2023-01-16T00:09:56;95796.81;;;1.53;100.00
29169;BME280;16219;42.864;23.360;2023-01-16T00:12:23;95800.25;;;1.16;100.00
29169;BME280;16219;42.864;23.360;2023-01-16T00:14:50;95793.28;;;1.27;100.00
29169;BME280;16219;42.864;23.360;2023-01-16T00:17:18;95791.78;;;1.36;100.00
29169;BME280;16219;42.864;23.360;2023-01-16T00:19:45;95798.78;;;1.30;100.00
29169;BME280;16219;42.864;23.360;2023-01-16T00:22:13;95785.63;;;1.10;100.00
29169;BME280;16219;42.864;23.360;2023-01-16T00:24:40;95784.66;;;1.16;100.00
29169;BME280;16219;42.864;23.360;2023-01-16T00:27:07;95778.25;;;1.29;100.00
29169;BME280;16219;42.864;23.360;2023-01-16T00:29:35;95781.94;;;1.38;100.00
29169;BME280;16219;42.864;23.360;2023-01-16T00:32:02;95775.19;;;1.42;100.00
29169;BME280;16219;42.864;23.360;2023-01-16T00:34:29;95766.09;;;1.44;100.00
29169;BME280;16219;42.864;23.360;2023-01-16T00:36:57;95763.50;;;1.44;100.00
29169;BME280;16219;42.864;23.360;2023-01-16T00:39:25;95754.16;;;1.48;100.00
29169;BME280;16219;42.864;23.360;2023-01-16T00:41:53;95749.47;;;1.45;100.00
29169;BME280;16219;42.864;23.360;2023-01-16T00:44:20;95754.97;;;1.49;100.00
29169;BME280;16219;42.864;23.360;2023-01-16T00:46:48;95707.53;;;1.27;100.00
29169;BME280;16219;42.864;23.360;2023-01-16T00:49:16;95747.34;;;1.37;100.00
29169;BME280;16219;42.864;23.360;2023-01-16T00:51:43;95748.34;;;1.31;100.00
29169;BME280;16219;42.864;23.360;2023-01-16T00:54:10;95754.13;;;1.38;100.00
29169;BME280;16219;42.864;23.360;2023-01-16T00:56:38;95747.84;;;1.34;100.00
29169;BME280;16219;42.864;23.360;2023-01-16T00:59:06;95741.06;;;1.28;100.00
29169;BME280;16219;42.864;23.360;2023-01-16T01:01:34;95739.53;;;1.32;100.00
29169;BME280;16219;42.864;23.360;2023-01-16T01:04:02;95742.09;;;1.27;100.00
29169;BME280;16219;42.864;23.360;2023-01-16T01:06:29;95741.25;;;1.16;100.00
29169;BME280;16219;42.864;23.360;2023-01-16T01:08:56;95738.41;;;1.18;100.00
29169;BME280;16219;42.864;23.360;2023-01-16T01:11:24;95746.28;;;1.28;100.00
29169;BME280;16219;42.864;23.360;2023-01-16T01:13:53;95747.81;;;1.24;100.00
29169;BME280;16219;42.864;23.360;2023-01-16T01:16:20;95742.53;;;1.14;100.00
29169;BME280;16219;42.864;23.360;2023-01-16T01:18:48;95742.31;;;1.20;100.00
29169;BME280;16219;42.864;23.360;2023-01-16T01:21:15;95707.69;;;1.05;100.00
29169;BME280;16219;42.864;23.360;2023-01-16T01:23:44;95727.31;;;1.28;100.00
29169;BME280;16219;42.864;23.360;2023-01-16T01:26:13;95733.50;;;1.27;100.00
29169;BME280;16219;42.864;23.360;2023-01-16T01:28:41;95709.81;;;1.18;100.00
29169;BME280;16219;42.864;23.360;2023-01-16T01:31:11;95720.75;;;1.15;100.00
29169;BME280;16219;42.864;23.360;2023-01-16T01:33:40;95727.31;;;1.28;100.00
29169;BME280;16219;42.864;23.360;2023-01-16T01:36:07;95750.16;;;1.25;100.00
29169;BME280;16219;42.864;23.360;2023-01-16T01:38:35;95735.34;;;1.26;100.00
29169;BME280;16219;42.864;23.360;2023-01-16T01:41:04;95715.56;;;1.20;100.00
29169;BME280;16219;42.864;23.360;2023-01-16T01:43:43;95719.25;;;1.34;100.00
29169;BME280;16219;42.864;23.360;2023-01-16T01:46:20;95719.75;;;1.31;100.00
29169;BME280;16219;42.864;23.360;2023-01-16T01:48:51;95719.25;;;1.29;100.00
29169;BME280;16219;42.864;23.360;2023-01-16T01:51:22;95715.09;;;1.33;100.00
29169;BME280;16219;42.864;23.360;2023-01-16T01:53:53;95712.75;;;1.32;100.00
29169;BME280;16219;42.864;23.360;2023-01-16T01:56:28;95708.28;;;1.22;100.00
29169;BME280;16219;42.864;23.360;2023-01-16T01:58:59;95711.38;;;1.14;100.00
29169;BME280;16219;42.864;23.360;2023-01-16T02:01:30;95711.16;;;1.20;100.00
29169;BME280;16219;42.864;23.360;2023-01-16T02:04:00;95705.19;;;1.25;100.00
29169;BME280;16219;42.864;23.360;2023-01-16T02:06:33;95700.28;;;1.29;100.00
29169;BME280;16219;42.864;23.360;2023-01-16T02:09:04;95694.03;;;1.30;100.00
29169;BME280;16219;42.864;23.360;2023-01-16T02:11:34;95691.16;;;1.26;100.00
29169;BME280;16219;42.864;23.360;2023-01-16T02:14:06;95677.56;;;1.09;100.00
29169;BME280;16219;42.864;23.360;2023-01-16T02:16:36;95686.97;;;1.15;100.00
29169;BME280;16219;42.864;23.360;2023-01-16T02:19:31;95689.06;;;1.23;100.00
29169;BME280;16219;42.864;23.360;2023-01-16T02:22:27;95688.00;;;1.19;100.00
29169;BME280;16219;42.864;23.360;2023-01-16T02:25:20;95693.19;;;1.19;100.00
29169;BME280;16219;42.864;23.360;2023-01-16T02:34:00;95678.84;;;1.06;100.00
29169;BME280;16219;42.864;23.360;2023-01-16T02:36:41;95672.38;;;1.09;100.00
29169;BME280;16219;42.864;23.360;2023-01-16T02:39:20;95668.78;;;1.15;100.00
29169;BME280;16219;42.864;23.360;2023-01-16T02:41:59;95678.41;;;1.19;100.00
29169;BME280;16219;42.864;23.360;2023-01-16T02:44:36;95680.72;;;1.11;100.00
29169;BME280;16219;42.864;23.360;2023-01-16T02:47:14;95653.13;;;1.05;100.00
29169;BME280;16219;42.864;23.360;2023-01-16T02:49:49;95667.97;;;1.14;100.00
29169;BME280;16219;42.864;23.360;2023-01-16T02:52:23;95663.31;;;1.16;100.00
29169;BME280;16219;42.864;23.360;2023-01-16T02:54:59;95663.53;;;1.10;100.00
29169;BME280;16219;42.864;23.360;2023-01-16T02:57:29;95655.69;;;0.94;100.00
29169;BME280;16219;42.864;23.360;2023-01-16T02:59:59;95663.22;;;0.96;100.00
29169;BME280;16219;42.864;23.360;2023-01-16T03:02:26;95657.53;;;1.04;100.00
29169;BME280;16219;42.864;23.360;2023-01-16T03:04:54;95650.53;;;1.05;100.00
29169;BME280;16219;42.864;23.360;2023-01-16T03:08:02;95652.06;;;1.00;100.00
29169;BME280;16219;42.864;23.360;2023-01-16T03:10:46;95649.72;;;0.94;100.00
29169;BME280;16219;42.864;23.360;2023-01-16T03:13:27;95644.28;;;1.00;100.00
29169;BME280;16219;42.864;23.360;2023-01-16T03:16:05;95642.19;;;0.97;100.00
29169;BME280;16219;42.864;23.360;2023-01-16T03:18:41;95636.44;;;0.85;100.00
29169;BME280;16219;42.864;23.360;2023-01-16T03:21:22;95628.13;;;0.93;100.00
29169;BME280;16219;42.864;23.360;2023-01-16T03:23:57;95639.31;;;0.94;100.00
29169;BME280;16219;42.864;23.360;2023-01-16T03:26:33;95615.41;;;0.92;100.00
29169;BME280;16219;42.864;23.360;2023-01-16T03:29:07;95628.72;;;1.06;100.00
29169;BME280;16219;42.864;23.360;2023-01-16T03:31:40;95624.06;;;1.08;100.00
29169;BME280;16219;42.864;23.360;2023-01-16T03:34:14;95617.81;;;1.09;100.00
29169;BME280;16219;42.864;23.360;2023-01-16T03:36:50;95614.44;;;1.08;100.00
29169;BME280;16219;42.864;23.360;2023-01-16T03:39:23;95613.16;;;1.11;100.00
29169;BME280;16219;42.864;23.360;2023-01-16T03:41:54;95609.25;;;1.08;100.00
29169;BME280;16219;42.864;23.360;2023-01-16T03:44:28;95599.91;;;1.12;100.00
29169;BME280;16219;42.864;23.360;2023-01-16T03:46:58;95589.25;;;1.09;100.00
29169;BME280;16219;42.864;23.360;2023-01-16T03:49:30;95589.75;;;1.06;100.00
29169;BME280;16219;42.864;23.360;2023-01-16T03:52:02;95565.28;;;0.96;100.00
29169;BME280;16219;42.864;23.360;2023-01-16T03:54:36;95586.66;;;1.09;100.00
29169;BME280;16219;42.864;23.360;2023-01-16T03:57:13;95582.47;;;1.03;100.00
29169;BME280;16219;42.864;23.360;2023-01-16T03:59:43;95584.81;;;0.99;100.00
29169;BME280;16219;42.864;23.360;2023-01-16T04:02:13;95577.78;;;0.99;100.00
29169;BME280;16219;42.864;23.360;2023-01-16T04:04:44;95585.03;;;0.97;100.00
29169;BME280;16219;42.864;23.360;2023-01-16T04:07:19;95593.63;;;0.98;100.00
29169;BME280;16219;42.864;23.360;2023-01-16T04:09:51;95597.53;;;1.00;100.00
29169;BME280;16219;42.864;23.360;2023-01-16T04:12:22;95587.63;;;0.97;100.00
29169;BME280;16219;42.864;23.360;2023-01-16T04:14:54;95589.72;;;1.00;100.00
29169;BME280;16219;42.864;23.360;2023-01-16T04:17:22;95582.91;;;0.84;100.00
29169;BME280;16219;42.864;23.360;2023-01-16T04:19:50;95579.22;;;0.75;100.00
29169;BME280;16219;42.864;23.360;2023-01-16T04:22:23;95582.59;;;0.75;100.00
29169;BME280;16219;42.864;23.360;2023-01-16T04:24:51;95576.16;;;0.83;100.00
29169;BME280;16219;42.864;23.360;2023-01-16T04:27:19;95581.84;;;0.75;100.00
29169;BME280;16219;42.864;23.360;2023-01-16T04:29:47;95578.19;;;0.71;100.00
29169;BME280;16219;42.864;23.360;2023-01-16T04:32:14;95572.50;;;0.74;100.00
29169;BME280;16219;42.864;23.360;2023-01-16T04:34:41;95579.78;;;0.82;100.00
29169;BME280;16219;42.864;23.360;2023-01-16T04:37:11;95574.59;;;0.82;100.00
29169;BME280;16219;42.864;23.360;2023-01-16T04:39:40;95551.94;;;0.67;100.00
29169;BME280;16219;42.864;23.360;2023-01-16T04:42:07;95575.59;;;0.76;100.00
29169;BME280;16219;42.864;23.360;2023-01-16T04:44:35;95572.97;;;0.71;100.00
29169;BME280;16219;42.864;23.360;2023-01-16T04:47:02;95556.66;;;0.75;100.00
29169;BME280;16219;42.864;23.360;2023-01-16T04:49:29;95564.50;;;0.86;100.00
29169;BME280;16219;42.864;23.360;2023-01-16T04:51:56;95559.50;;;0.74;100.00
29169;BME280;16219;42.864;23.360;2023-01-16T04:54:24;95564.69;;;0.69;100.00
29169;BME280;16219;42.864;23.360;2023-01-16T04:56:52;95552.47;;;0.69;100.00
29169;BME280;16219;42.864;23.360;2023-01-16T04:59:19;95564.69;;;0.69;100.00
29169;BME280;16219;42.864;23.360;2023-01-16T05:01:46;95565.19;;;0.66;100.00
29169;BME280;16219;42.864;23.360;2023-01-16T05:04:14;95560.75;;;0.61;100.00
29169;BME280;16219;42.864;23.360;2023-01-16T05:06:43;95551.13;;;0.57;100.00
29169;BME280;16219;42.864;23.360;2023-01-16T05:09:10;95554.94;;;0.39;100.00
29169;BME280;16219;42.864;23.360;2023-01-16T05:11:37;95559.88;;;0.45;100.00
29169;BME280;16219;42.864;23.360;2023-01-16T05:14:07;95545.59;;;0.43;100.00
29169;BME280;16219;42.864;23.360;2023-01-16T05:16:37;95547.44;;;0.47;100.00
29169;BME280;16219;42.864;23.360;2023-01-16T05:19:04;95544.75;;;0.32;100.00
29169;BME280;16219;42.864;23.360;2023-01-16T05:21:31;95548.69;;;0.40;100.00
29169;BME280;16219;42.864;23.360;2023-01-16T05:23:58;95536.53;;;0.45;100.00
29169;BME280;16219;42.864;23.360;2023-01-16T05:26:25;95531.34;;;0.50;100.00
29169;BME280;16219;42.864;23.360;2023-01-16T05:28:53;95536.81;;;0.54;100.00
29169;BME280;16219;42.864;23.360;2023-01-16T05:31:21;95530.38;;;0.62;100.00
29169;BME280;16219;42.864;23.360;2023-01-16T05:33:48;95533.75;;;0.62;100.00
29169;BME280;16219;42.864;23.360;2023-01-16T05:36:15;95525.72;;;0.64;100.00
29169;BME280;16219;42.864;23.360;2023-01-16T05:38:42;95524.91;;;0.58;100.00
29169;BME280;16219;42.864;23.360;2023-01-16T05:41:09;95521.53;;;0.58;100.00
29169;BME280;16219;42.864;23.360;2023-01-16T05:43:36;95524.66;;;0.60;100.00
29169;BME280;16219;42.864;23.360;2023-01-16T05:46:03;95514.78;;;0.62;100.00
29169;BME280;16219;42.864;23.360;2023-01-16T05:48:32;95516.34;;;0.63;100.00
29169;BME280;16219;42.864;23.360;2023-01-16T05:51:01;95521.84;;;0.71;100.00
29169;BME280;16219;42.864;23.360;2023-01-16T05:53:29;95517.97;;;0.74;100.00
29169;BME280;16219;42.864;23.360;2023-01-16T05:55:56;95524.13;;;0.58;100.00
29169;BME280;16219;42.864;23.360;2023-01-16T05:58:24;95517.94;;;0.64;100.00
29169;BME280;16219;42.864;23.360;2023-01-16T06:00:51;95514.53;;;0.63;100.00
29169;BME280;16219;42.864;23.360;2023-01-16T06:03:18;95507.28;;;0.65;100.00
29169;BME280;16219;42.864;23.360;2023-01-16T06:05:48;95487.50;;;0.54;100.00
29169;BME280;16219;42.864;23.360;2023-01-16T06:08:15;95507.84;;;0.72;100.00
29169;BME280;16219;42.864;23.360;2023-01-16T06:10:42;95508.84;;;0.66;100.00
29169;BME280;16219;42.864;23.360;2023-01-16T06:13:10;95515.88;;;0.71;100.00
29169;BME280;16219;42.864;23.360;2023-01-16T06:15:37;95506.25;;;0.66;100.00
29169;BME280;16219;42.864;23.360;2023-01-16T06:18:05;95511.19;;;0.68;100.00
29169;BME280;16219;42.864;23.360;2023-01-16T06:20:32;95510.94;;;0.74;100.00
29169;BME280;16219;42.864;23.360;2023-01-16T06:23:00;95516.91;;;0.65;100.00
29169;BME280;16219;42.864;23.360;2023-01-16T06:25:28;95515.88;;;0.71;100.00
29169;BME280;16219;42.864;23.360;2023-01-16T06:27:55;95516.41;;;0.78;100.00
29169;BME280;16219;42.864;23.360;2023-01-16T06:30:22;95519.53;;;0.80;100.00
29169;BME280;16219;42.864;23.360;2023-01-16T06:32:50;95519.03;;;0.88;100.00
29169;BME280;16219;42.864;23.360;2023-01-16T06:35:17;95519.78;;;0.79;100.00
29169;BME280;16219;42.864;23.360;2023-01-16T06:37:45;95519.06;;;0.93;100.00
29169;BME280;16219;42.864;23.360;2023-01-16T06:40:13;95524.53;;;0.97;100.00
29169;BME280;16219;42.864;23.360;2023-01-16T06:42:40;95524.84;;;1.11;100.00
29169;BME280;16219;42.864;23.360;2023-01-16T06:45:09;95525.06;;;1.04;100.00
29169;BME280;16219;42.864;23.360;2023-01-16T06:47:36;95526.13;;;1.08;100.00
29169;BME280;16219;42.864;23.360;2023-01-16T06:50:04;95514.97;;;1.13;100.00
29169;BME280;16219;42.864;23.360;2023-01-16T06:52:31;95511.84;;;1.21;100.00
29169;BME280;16219;42.864;23.360;2023-01-16T06:55:00;95508.75;;;1.24;100.00
29169;BME280;16219;42.864;23.360;2023-01-16T06:57:29;95496.31;;;1.36;100.00
29169;BME280;16219;42.864;23.360;2023-01-16T06:59:56;95500.19;;;1.44;100.00
29169;BME280;16219;42.864;23.360;2023-01-16T07:02:24;95507.22;;;1.54;100.00
29169;BME280;16219;42.864;23.360;2023-01-16T07:04:51;95504.63;;;1.59;100.00
29169;BME280;16219;42.864;23.360;2023-01-16T07:07:18;95499.16;;;1.60;100.00
29169;BME280;16219;42.864;23.360;2023-01-16T07:09:45;95499.69;;;1.67;100.00
29169;BME280;16219;42.864;23.360;2023-01-16T07:12:13;95484.84;;;1.68;100.00
29169;BME280;16219;42.864;23.360;2023-01-16T07:14:42;95497.09;;;1.62;100.00
29169;BME280;16219;42.864;23.360;2023-01-16T07:17:26;95498.13;;;1.66;100.00
29169;BME280;16219;42.864;23.360;2023-01-16T07:20:11;95478.59;;;1.74;100.00
29169;BME280;16219;42.864;23.360;2023-01-16T07:22:56;95495.78;;;1.65;100.00
29169;BME280;16219;42.864;23.360;2023-01-16T07:25:28;95485.13;;;1.46;100.00
29169;BME280;16219;42.864;23.360;2023-01-16T07:27:58;95472.38;;;1.44;100.00
29169;BME280;16219;42.864;23.360;2023-01-16T07:30:28;95473.16;;;1.50;100.00
29169;BME280;16219;42.864;23.360;2023-01-16T07:32:55;95476.53;;;1.50;100.00
29169;BME280;16219;42.864;23.360;2023-01-16T07:35:23;95475.75;;;1.55;100.00
29169;BME280;16219;42.864;23.360;2023-01-16T07:37:50;95466.38;;;1.44;100.00
29169;BME280;16219;42.864;23.360;2023-01-16T07:40:22;95469.75;;;1.44;100.00
29169;BME280;16219;42.864;23.360;2023-01-16T07:42:49;95465.09;;;1.52;100.00
29169;BME280;16219;42.864;23.360;2023-01-16T07:45:16;95469.25;;;1.63;100.00
29169;BME280;16219;42.864;23.360;2023-01-16T07:47:45;95461.19;;;1.64;100.00
29169;BME280;16219;42.864;23.360;2023-01-16T07:50:13;95466.38;;;1.80;100.00
29169;BME280;16219;42.864;23.360;2023-01-16T07:52:41;95461.19;;;1.74;100.00
29169;BME280;16219;42.864;23.360;2023-01-16T07:55:09;95464.53;;;1.90;100.00
29169;BME280;16219;42.864;23.360;2023-01-16T07:57:38;95458.78;;;2.04;100.00
29169;BME280;16219;42.864;23.360;2023-01-16T08:00:08;95450.22;;;2.08;100.00
29169;BME280;16219;42.864;23.360;2023-01-16T08:02:39;95457.22;;;2.13;100.00
29169;BME280;16219;42.864;23.360;2023-01-16T08:05:09;95457.97;;;2.18;100.00
29169;BME280;16219;42.864;23.360;2023-01-16T08:07:37;95443.34;;;2.33;100.00
29169;BME280;16219;42.864;23.360;2023-01-16T08:10:05;95427.25;;;2.31;100.00
29169;BME280;16219;42.864;23.360;2023-01-16T08:12:33;95449.63;;;2.32;100.00
29169;BME280;16219;42.864;23.360;2023-01-16T08:15:00;95445.44;;;2.36;100.00
29169;BME280;16219;42.864;23.360;2023-01-16T08:17:27;95440.97;;;2.46;100.00
29169;BME280;16219;42.864;23.360;2023-01-16T08:19:54;95439.63;;;2.54;100.00
29169;BME280;16219;42.864;23.360;2023-01-16T08:22:23;95446.63;;;2.59;100.00
29169;BME280;16219;42.864;23.360;2023-01-16T08:24:50;95446.13;;;2.57;100.00
29169;BME280;16219;42.864;23.360;2023-01-16T08:27:18;95445.03;;;2.73;100.00
29169;BME280;16219;42.864;23.360;2023-01-16T08:29:45;95437.41;;;2.82;100.00
29169;BME280;16219;42.864;23.360;2023-01-16T08:32:12;95441.75;;;2.96;100.00
29169;BME280;16219;42.864;23.360;2023-01-16T08:34:41;95437.47;;;3.16;100.00
29169;BME280;16219;42.864;23.360;2023-01-16T08:37:08;95435.31;;;3.28;100.00
29169;BME280;16219;42.864;23.360;2023-01-16T08:39:38;95427.91;;;3.40;100.00
29169;BME280;16219;42.864;23.360;2023-01-16T08:42:06;95422.09;;;3.48;100.00
29169;BME280;16219;42.864;23.360;2023-01-16T08:44:50;95408.19;;;3.58;100.00
29169;BME280;16219;42.864;23.360;2023-01-16T08:47:37;95420.88;;;3.70;100.00
29169;BME280;16219;42.864;23.360;2023-01-16T08:50:21;95411.44;;;3.74;100.00
29169;BME280;16219;42.864;23.360;2023-01-16T08:53:06;95404.00;;;3.86;100.00
29169;BME280;16219;42.864;23.360;2023-01-16T08:55:36;95401.00;;;3.98;100.00
29169;BME280;16219;42.864;23.360;2023-01-16T08:58:04;95412.22;;;3.98;100.00
29169;BME280;16219;42.864;23.360;2023-01-16T09:00:31;95397.97;;;4.15;100.00
29169;BME280;16219;42.864;23.360;2023-01-16T09:03:00;95391.06;;;4.24;100.00
29169;BME280;16219;42.864;23.360;2023-01-16T09:05:27;95389.44;;;4.28;100.00
29169;BME280;16219;42.864;23.360;2023-01-16T09:07:55;95383.84;;;4.40;100.00
29169;BME280;16219;42.864;23.360;2023-01-16T09:10:22;95383.06;;;4.39;100.00
29169;BME280;16219;42.864;23.360;2023-01-16T09:12:53;95384.13;;;4.38;100.00
29169;BME280;16219;42.864;23.360;2023-01-16T09:15:37;95383.13;;;4.34;100.00
29169;BME280;16219;42.864;23.360;2023-01-16T09:18:05;95381.50;;;4.38;100.00
29169;BME280;16219;42.864;23.360;2023-01-16T09:20:32;95362.31;;;4.29;100.00
29169;BME280;16219;42.864;23.360;2023-01-16T09:23:01;95368.94;;;4.40;100.00
29169;BME280;16219;42.864;23.360;2023-01-16T09:25:29;95370.06;;;4.53;100.00
29169;BME280;16219;42.864;23.360;2023-01-16T09:27:58;95364.44;;;4.65;100.00
29169;BME280;16219;42.864;23.360;2023-01-16T09:30:26;95357.28;;;4.70;100.00
29169;BME280;16219;42.864;23.360;2023-01-16T09:32:54;95354.34;;;4.77;100.00
29169;BME280;16219;42.864;23.360;2023-01-16T09:35:22;95344.88;;;4.81;100.00
29169;BME280;16219;42.864;23.360;2023-01-16T09:37:49;95326.00;;;4.84;100.00
29169;BME280;16219;42.864;23.360;2023-01-16T09:40:19;95316.81;;;4.87;100.00
29169;BME280;16219;42.864;23.360;2023-01-16T09:43:06;95331.41;;;5.07;100.00
29169;BME280;16219;42.864;23.360;2023-01-16T09:45:54;95329.34;;;5.22;100.00
29169;BME280;16219;42.864;23.360;2023-01-16T09:48:26;95328.28;;;5.37;100.00
29169;BME280;16219;42.864;23.360;2023-01-16T09:50:58;95326.44;;;5.38;100.00
29169;BME280;16219;42.864;23.360;2023-01-16T09:53:34;95317.25;;;5.40;100.00
29169;BME280;16219;42.864;23.360;2023-01-16T09:56:22;95327.25;;;5.52;100.00
29169;BME280;16219;42.864;23.360;2023-01-16T09:59:20;95315.94;;;5.57;100.00
29169;BME280;16219;42.864;23.360;2023-01-16T10:01:56;95317.38;;;5.76;100.00
29169;BME280;16219;42.864;23.360;2023-01-16T10:04:27;95311.66;;;5.88;100.00
29169;BME280;16219;42.864;23.360;2023-01-16T10:07:11;95310.06;;;5.92;100.00
29169;BME280;16219;42.864;23.360;2023-01-16T10:09:49;95302.09;;;5.97;100.00
29169;BME280;16219;42.864;23.360;2023-01-16T10:12:21;95310.81;;;6.07;100.00
29169;BME280;16219;42.864;23.360;2023-01-16T10:15:09;95290.63;;;6.07;100.00
29169;BME280;16219;42.864;23.360;2023-01-16T10:17:49;95288.09;;;6.16;100.00
29169;BME280;16219;42.864;23.360;2023-01-16T10:20:39;95280.53;;;6.14;100.00
29169;BME280;16219;42.864;23.360;2023-01-16T10:23:25;95281.13;;;6.25;100.00
29169;BME280;16219;42.864;23.360;2023-01-16T10:26:02;95283.03;;;6.33;100.00
29169;BME280;16219;42.864;23.360;2023-01-16T10:28:39;95273.78;;;6.36;100.00
29169;BME280;16219;42.864;23.360;2023-01-16T10:31:14;95268.03;;;6.47;100.00
29169;BME280;16219;42.864;23.360;2023-01-16T10:33:47;95253.09;;;6.48;100.00
29169;BME280;16219;42.864;23.360;2023-01-16T10:36:17;95263.50;;;6.62;100.00
29169;BME280;16219;42.864;23.360;2023-01-16T10:38:47;95250.91;;;6.64;100.00
29169;BME280;16219;42.864;23.360;2023-01-16T10:41:21;95247.66;;;6.67;100.00
29169;BME280;16219;42.864;23.360;2023-01-16T10:44:20;95239.53;;;6.68;100.00
29169;BME280;16219;42.864;23.360;2023-01-16T10:47:11;95236.84;;;6.82;100.00
29169;BME280;16219;42.864;23.360;2023-01-16T10:49:56;95228.44;;;6.94;100.00
29169;BME280;16219;42.864;23.360;2023-01-16T10:52:24;95211.97;;;7.02;100.00
29169;BME280;16219;42.864;23.360;2023-01-16T10:54:51;95182.38;;;6.79;100.00
29169;BME280;16219;42.864;23.360;2023-01-16T10:57:19;95213.78;;;6.93;100.00
29169;BME280;16219;42.864;23.360;2023-01-16T10:59:50;95208.09;;;6.99;100.00
29169;BME280;16219;42.864;23.360;2023-01-16T11:02:27;95206.75;;;7.11;100.00
29169;BME280;16219;42.864;23.360;2023-01-16T11:04:56;95201.34;;;7.07;100.00
29169;BME280;16219;42.864;23.360;2023-01-16T11:07:27;95181.00;;;7.13;100.00
29169;BME280;16219;42.864;23.360;2023-01-16T11:09:55;95181.78;;;7.22;100.00
29169;BME280;16219;42.864;23.360;2023-01-16T11:12:24;95181.19;;;7.25;100.00
29169;BME280;16219;42.864;23.360;2023-01-16T11:15:15;95167.03;;;7.35;100.00
29169;BME280;16219;42.864;23.360;2023-01-16T11:18:03;95166.28;;;7.51;100.00
29169;BME280;16219;42.864;23.360;2023-01-16T11:20:58;95143.56;;;7.38;100.00
29169;BME280;16219;42.864;23.360;2023-01-16T11:23:29;95147.63;;;7.44;100.00
29169;BME280;16219;42.864;23.360;2023-01-16T11:26:00;95147.44;;;7.41;100.00
29169;BME280;16219;42.864;23.360;2023-01-16T11:28:29;95136.97;;;7.49;100.00
29169;BME280;16219;42.864;23.360;2023-01-16T11:31:01;95127.06;;;7.38;100.00
29169;BME280;16219;42.864;23.360;2023-01-16T11:33:36;95123.81;;;7.32;100.00
29169;BME280;16219;42.864;23.360;2023-01-16T11:36:06;95133.97;;;7.25;100.00
29169;BME280;16219;42.864;23.360;2023-01-16T11:38:36;95128.88;;;7.29;100.00
29169;BME280;16219;42.864;23.360;2023-01-16T11:41:05;95121.50;;;7.31;100.00
29169;BME280;16219;42.864;23.360;2023-01-16T11:43:34;95126.28;;;7.37;100.00
29169;BME280;16219;42.864;23.360;2023-01-16T11:46:31;95106.53;;;7.40;100.00
29169;BME280;16219;42.864;23.360;2023-01-16T11:49:01;95118.44;;;7.46;100.00
29169;BME280;16219;42.864;23.360;2023-01-16T11:51:30;95105.63;;;7.44;100.00
29169;BME280;16219;42.864;23.360;2023-01-16T11:54:00;95099.88;;;7.34;100.00
29169;BME280;16219;42.864;23.360;2023-01-16T11:56:36;95090.78;;;7.31;100.00
29169;BME280;16219;42.864;23.360;2023-01-16T12:02:01;95080.28;;;7.31;100.00
29169;BME280;16219;42.864;23.360;2023-01-16T12:04:55;95088.47;;;7.38;100.00
29169;BME280;16219;42.864;23.360;2023-01-16T12:07:50;95082.28;;;7.43;100.00
29169;BME280;16219;42.864;23.360;2023-01-16T12:10:27;95077.53;;;7.54;100.00
29169;BME280;16219;42.864;23.360;2023-01-16T12:13:03;95074.88;;;7.19;100.00
29169;BME280;16219;42.864;23.360;2023-01-16T12:16:00;95056.66;;;7.14;100.00
29169;BME280;16219;42.864;23.360;2023-01-16T12:18:36;95067.00;;;7.19;100.00
29169;BME280;16219;42.864;23.360;2023-01-16T12:21:20;95063.44;;;7.15;100.00
29169;BME280;16219;42.864;23.360;2023-01-16T12:24:04;95075.31;;;7.21;100.00
29169;BME280;16219;42.864;23.360;2023-01-16T12:26:40;95075.50;;;7.24;100.00
29169;BME280;16219;42.864;23.360;2023-01-16T12:29:20;95066.06;;;7.15;100.00
29169;BME280;16219;42.864;23.360;2023-01-16T12:32:10;95047.56;;;7.20;100.00
29169;BME280;16219;42.864;23.360;2023-01-16T12:34:52;95043.56;;;7.31;100.00
29169;BME280;16219;42.864;23.360;2023-01-16T12:37:40;95036.91;;;7.25;100.00
29169;BME280;16219;42.864;23.360;2023-01-16T12:40:25;95033.19;;;7.26;100.00
29169;BME280;16219;42.864;23.360;2023-01-16T12:43:02;95039.38;;;7.21;100.00
29169;BME280;16219;42.864;23.360;2023-01-16T12:45:49;95031.22;;;7.23;100.00
29169;BME280;16219;42.864;23.360;2023-01-16T12:48:42;95024.72;;;7.20;100.00
29169;BME280;16219;42.864;23.360;2023-01-16T12:51:26;95023.34;;;7.32;100.00
29169;BME280;16219;42.864;23.360;2023-01-16T12:54:12;95007.88;;;7.21;100.00
29169;BME280;16219;42.864;23.360;2023-01-16T12:56:47;95013.91;;;7.22;100.00
29169;BME280;16219;42.864;23.360;2023-01-16T12:59:22;95009.59;;;7.26;100.00
29169;BME280;16219;42.864;23.360;2023-01-16T13:01:54;94996.34;;;7.31;100.00
29169;BME280;16219;42.864;23.360;2023-01-16T13:04:25;94997.09;;;7.40;100.00
29169;BME280;16219;42.864;23.360;2023-01-16T13:06:56;94988.00;;;7.29;100.00
29169;BME280;16219;42.864;23.360;2023-01-16T13:09:29;94977.34;;;7.25;100.00
29169;BME280;16219;42.864;23.360;2023-01-16T13:12:08;94970.72;;;7.28;100.00
29169;BME280;16219;42.864;23.360;2023-01-16T13:15:05;94975.19;;;7.19;100.00
29169;BME280;16219;42.864;23.360;2023-01-16T13:17:42;94974.53;;;7.13;100.00
29169;BME280;16219;42.864;23.360;2023-01-16T13:20:12;94978.53;;;6.85;100.00
29169;BME280;16219;42.864;23.360;2023-01-16T13:22:46;94962.91;;;6.71;100.00
29169;BME280;16219;42.864;23.360;2023-01-16T13:25:20;94967.22;;;6.67;100.00